createdAt,value
2022-12-15T00:00:11.725Z,83.98
2022-12-15T00:01:18.928Z,83.96
2022-12-15T00:02:22.252Z,83.95
2022-12-15T00:03:26.324Z,83.92
2022-12-15T00:04:33.239Z,83.95
2022-12-15T00:05:36.554Z,83.98
2022-12-15T00:06:46.897Z,84.06
2022-12-15T00:07:49.481Z,84.11
2022-12-15T00:08:56.579Z,84.28
2022-12-15T00:10:02.773Z,84.41
2022-12-15T00:11:08.852Z,84.50
2022-12-15T00:12:14.988Z,84.60
2022-12-15T00:13:18.123Z,84.70
2022-12-15T00:14:22.118Z,84.75
2022-12-15T00:15:29.249Z,84.80
2022-12-15T00:16:32.938Z,84.83
2022-12-15T00:17:36.657Z,84.83
2022-12-15T00:18:40.745Z,84.85
2022-12-15T00:19:47.968Z,84.84
2022-12-15T00:20:51.143Z,84.83
2022-12-15T00:21:58.290Z,84.82
2022-12-15T00:23:01.526Z,84.82
2022-12-15T00:24:05.455Z,84.81
2022-12-15T00:25:09.568Z,84.81
2022-12-15T00:26:16.710Z,84.78
2022-12-15T00:27:19.978Z,84.78
2022-12-15T00:28:23.859Z,84.80
2022-12-15T00:29:31.108Z,84.81
2022-12-15T00:30:40.409Z,84.82
2022-12-15T00:31:46.199Z,84.81
2022-12-15T00:32:49.210Z,84.81
2022-12-15T00:33:53.221Z,84.79
2022-12-15T00:34:57.259Z,84.78
2022-12-15T00:36:01.356Z,84.79
2022-12-15T00:37:05.331Z,84.77
2022-12-15T00:38:12.698Z,84.78
2022-12-15T00:39:15.840Z,84.73
2022-12-15T00:40:19.884Z,84.69
2022-12-15T00:41:26.959Z,84.66
2022-12-15T00:42:36.164Z,84.63
2022-12-15T00:43:38.776Z,84.60
2022-12-15T00:44:45.941Z,84.60
2022-12-15T00:45:49.151Z,84.57
2022-12-15T00:46:56.237Z,84.53
2022-12-15T00:48:02.239Z,84.50
2022-12-15T00:49:05.469Z,84.50
2022-12-15T00:50:09.459Z,84.51
2022-12-15T00:51:13.488Z,84.51
2022-12-15T00:52:17.565Z,84.53
2022-12-15T00:53:21.660Z,84.52
2022-12-15T00:54:25.681Z,84.49
2022-12-15T00:55:29.769Z,84.44
2022-12-15T00:56:36.919Z,84.42
2022-12-15T00:57:43.039Z,84.36
2022-12-15T00:58:46.248Z,84.36
2022-12-15T00:59:50.222Z,84.36
2022-12-15T01:00:57.378Z,84.36
2022-12-15T01:02:00.684Z,84.36
2022-12-15T01:03:04.809Z,84.37
2022-12-15T01:04:08.681Z,84.39
2022-12-15T01:05:12.747Z,84.41
2022-12-15T01:06:19.922Z,84.42
2022-12-15T01:07:23.088Z,84.49
2022-12-15T01:08:27.079Z,84.52
2022-12-15T01:09:31.042Z,84.55
2022-12-15T01:10:35.205Z,84.59
2022-12-15T01:11:39.318Z,84.64
2022-12-15T01:12:46.400Z,84.70
2022-12-15T01:13:50.040Z,84.74
2022-12-15T01:14:53.632Z,84.78
2022-12-15T01:15:57.746Z,84.81
2022-12-15T01:17:04.875Z,84.86
2022-12-15T01:18:08.135Z,84.91
2022-12-15T01:19:12.118Z,84.96
2022-12-15T01:20:17.114Z,84.99
2022-12-15T01:21:24.721Z,85.02
2022-12-15T01:22:24.796Z,85.07
2022-12-15T01:23:29.262Z,85.06
2022-12-15T01:24:33.054Z,85.08
2022-12-15T01:25:37.051Z,85.08
2022-12-15T01:26:41.084Z,85.11
2022-12-15T01:27:45.137Z,85.12
2022-12-15T01:28:49.231Z,85.14
2022-12-15T01:29:56.394Z,85.14
2022-12-15T01:30:59.760Z,85.14
2022-12-15T01:32:03.653Z,85.17
2022-12-15T01:33:10.947Z,85.16
2022-12-15T01:34:14.116Z,85.14
2022-12-15T01:35:18.131Z,85.12
2022-12-15T01:36:22.168Z,85.11
2022-12-15T01:37:26.237Z,85.11
2022-12-15T01:38:30.497Z,85.11
2022-12-15T01:39:34.510Z,85.16
2022-12-15T01:40:38.674Z,85.08
2022-12-15T01:41:45.739Z,85.05
2022-12-15T01:42:51.888Z,85.03
2022-12-15T01:43:55.080Z,85.03
2022-12-15T01:44:59.109Z,85.01
2022-12-15T01:46:03.176Z,85.02
2022-12-15T01:47:07.302Z,85.00
2022-12-15T01:48:14.423Z,85.01
2022-12-15T01:49:17.599Z,85.00
2022-12-15T01:50:21.679Z,84.99
2022-12-15T01:51:25.671Z,85.01
2022-12-15T01:52:29.727Z,85.02
2022-12-15T01:53:34.068Z,85.09
2022-12-15T01:54:37.868Z,85.09
2022-12-15T01:55:45.060Z,85.10
2022-12-15T01:56:48.187Z,85.12
2022-12-15T01:57:55.345Z,85.14
2022-12-15T01:58:58.659Z,85.17
2022-12-15T02:00:02.653Z,85.14
2022-12-15T02:01:06.842Z,85.14
2022-12-15T02:02:13.899Z,85.16
2022-12-15T02:03:17.064Z,85.13
2022-12-15T02:04:21.037Z,85.11
2022-12-15T02:05:25.014Z,85.11
2022-12-15T02:06:29.122Z,85.12
2022-12-15T02:07:33.145Z,85.11
2022-12-15T02:08:37.089Z,85.10
2022-12-15T02:09:41.196Z,85.11
2022-12-15T02:10:48.342Z,85.11
2022-12-15T02:11:51.448Z,85.13
2022-12-15T02:12:58.620Z,85.17
2022-12-15T02:14:04.736Z,85.15
2022-12-15T02:15:10.805Z,85.18
2022-12-15T02:16:14.017Z,85.20
2022-12-15T02:17:18.038Z,85.21
2022-12-15T02:18:22.106Z,85.22
2022-12-15T02:19:29.237Z,85.22
2022-12-15T02:20:35.292Z,85.24
2022-12-15T02:21:38.489Z,85.26
2022-12-15T02:22:42.601Z,85.26
2022-12-15T02:23:49.632Z,85.27
2022-12-15T02:24:52.703Z,85.28
2022-12-15T02:25:59.810Z,85.22
2022-12-15T02:27:02.905Z,85.12
2022-12-15T02:28:06.953Z,85.03
2022-12-15T02:29:10.947Z,85.02
2022-12-15T02:30:18.101Z,85.00
2022-12-15T02:31:24.247Z,84.95
2022-12-15T02:32:30.393Z,84.91
2022-12-15T02:33:36.622Z,84.87
2022-12-15T02:34:42.764Z,84.87
2022-12-15T02:35:51.992Z,84.90
2022-12-15T02:36:54.634Z,84.89
2022-12-15T02:37:58.598Z,84.87
2022-12-15T02:39:05.882Z,84.88
2022-12-15T02:40:11.969Z,84.88
2022-12-15T02:41:15.138Z,84.80
2022-12-15T02:42:19.133Z,84.79
2022-12-15T02:43:23.191Z,84.80
2022-12-15T02:44:27.277Z,84.75
2022-12-15T02:45:31.302Z,84.73
2022-12-15T02:46:35.301Z,84.68
2022-12-15T02:47:39.366Z,84.66
2022-12-15T02:48:43.405Z,84.57
2022-12-15T02:49:49.833Z,84.55
2022-12-15T02:50:51.489Z,84.46
2022-12-15T02:51:55.387Z,84.43
2022-12-15T02:52:59.569Z,84.33
2022-12-15T02:54:06.700Z,84.32
2022-12-15T02:55:09.928Z,84.33
2022-12-15T02:56:17.063Z,84.35
2022-12-15T02:57:20.225Z,84.26
2022-12-15T02:58:27.276Z,84.22
2022-12-15T02:59:33.373Z,84.22
2022-12-15T03:00:36.578Z,84.16
2022-12-15T03:01:40.602Z,84.19
2022-12-15T03:02:47.779Z,84.22
2022-12-15T03:03:58.058Z,84.34
2022-12-15T03:05:03.552Z,84.47
2022-12-15T03:06:06.721Z,84.60
2022-12-15T03:07:13.902Z,84.73
2022-12-15T03:08:17.013Z,84.87
2022-12-15T03:09:24.121Z,84.95
2022-12-15T03:10:27.282Z,85.03
2022-12-15T03:11:32.252Z,85.09
2022-12-15T03:12:36.046Z,85.14
2022-12-15T03:13:39.872Z,85.16
2022-12-15T03:14:46.965Z,85.24
2022-12-15T03:15:53.020Z,85.27
2022-12-15T03:16:56.351Z,85.26
2022-12-15T03:18:00.160Z,85.23
2022-12-15T03:19:04.253Z,85.19
2022-12-15T03:20:08.192Z,85.17
2022-12-15T03:21:12.288Z,85.13
2022-12-15T03:22:16.389Z,85.11
2022-12-15T03:23:23.508Z,85.09
2022-12-15T03:24:26.663Z,85.07
2022-12-15T03:25:30.670Z,85.10
2022-12-15T03:26:34.776Z,85.14
2022-12-15T03:27:38.808Z,85.16
2022-12-15T03:28:42.814Z,85.20
2022-12-15T03:29:52.999Z,85.25
2022-12-15T03:30:59.528Z,85.26
2022-12-15T03:32:02.764Z,85.31
2022-12-15T03:33:09.686Z,85.33
2022-12-15T03:34:12.917Z,85.34
2022-12-15T03:35:16.881Z,85.36
2022-12-15T03:36:24.042Z,85.35
2022-12-15T03:37:27.244Z,85.33
2022-12-15T03:38:34.404Z,85.36
2022-12-15T03:39:37.659Z,85.34
2022-12-15T03:40:41.717Z,85.32
2022-12-15T03:41:45.731Z,85.35
2022-12-15T03:42:49.875Z,85.38
2022-12-15T03:43:53.816Z,85.39
2022-12-15T03:44:57.886Z,85.42
2022-12-15T03:46:02.030Z,85.47
2022-12-15T03:47:05.942Z,85.49
2022-12-15T03:48:10.059Z,85.53
2022-12-15T03:49:14.225Z,85.55
2022-12-15T03:50:18.191Z,85.56
2022-12-15T03:51:25.334Z,85.56
2022-12-15T03:52:31.416Z,85.58
2022-12-15T03:53:34.828Z,85.61
2022-12-15T03:54:41.685Z,85.62
2022-12-15T03:55:44.891Z,85.65
2022-12-15T03:58:15.605Z,85.72
2022-12-15T03:59:19.588Z,85.74
2022-12-15T04:00:26.703Z,85.77
2022-12-15T04:01:30.094Z,85.79
2022-12-15T04:02:34.260Z,85.82
2022-12-15T04:03:38.012Z,85.85
2022-12-15T04:04:45.113Z,85.83
2022-12-15T04:05:51.166Z,85.84
2022-12-15T04:06:57.280Z,85.86
2022-12-15T04:08:00.530Z,85.85
2022-12-15T04:09:04.476Z,85.86
2022-12-15T04:10:08.545Z,85.84
2022-12-15T04:11:12.565Z,85.85
2022-12-15T04:12:16.634Z,85.85
2022-12-15T04:13:23.821Z,85.80
2022-12-15T04:14:26.982Z,85.80
2022-12-15T04:15:30.967Z,85.81
2022-12-15T04:16:38.198Z,85.71
2022-12-15T04:17:44.291Z,85.67
2022-12-15T04:18:50.471Z,85.70
2022-12-15T04:19:53.627Z,85.73
2022-12-15T04:21:00.770Z,85.78
2022-12-15T04:22:03.985Z,85.83
2022-12-15T04:23:08.165Z,85.87
2022-12-15T04:24:12.008Z,85.89
2022-12-15T04:25:22.204Z,85.94
2022-12-15T04:26:27.890Z,85.95
2022-12-15T04:27:31.038Z,85.95
2022-12-15T04:28:38.092Z,85.96
2022-12-15T04:29:41.118Z,85.95
2022-12-15T04:30:45.257Z,85.94
2022-12-15T04:31:49.191Z,85.94
2022-12-15T04:32:53.301Z,85.96
2022-12-15T04:33:57.394Z,85.98
2022-12-15T04:35:01.443Z,85.99
2022-12-15T04:36:08.623Z,86.01
2022-12-15T04:37:11.836Z,86.06
2022-12-15T04:38:15.853Z,86.10
2022-12-15T04:39:23.036Z,86.13
2022-12-15T04:40:26.179Z,86.16
2022-12-15T04:41:33.267Z,86.20
2022-12-15T04:42:39.293Z,86.23
2022-12-15T04:43:42.629Z,86.29
2022-12-15T04:44:49.991Z,86.28
2022-12-15T04:45:53.664Z,86.30
2022-12-15T04:46:56.820Z,86.32
2022-12-15T04:48:03.960Z,86.30
2022-12-15T04:49:07.166Z,86.31
2022-12-15T04:50:11.144Z,86.30
2022-12-15T04:51:15.188Z,86.28
2022-12-15T13:33:16.896Z,88.66
2022-12-15T14:10:19.582Z,90.82
2022-12-15T14:47:39.010Z,92.35
2022-12-15T14:54:27.892Z,92.88
2022-12-15T14:55:31.759Z,92.94
2022-12-15T14:58:05.705Z,93.06
2022-12-15T15:00:38.670Z,93.16
2022-12-15T15:03:17.210Z,93.25
2022-12-15T15:26:00.205Z,93.50
2022-12-15T21:08:15.123Z,98.82
2022-12-15T21:09:18.089Z,98.83
2022-12-15T21:10:22.243Z,98.85
2022-12-15T21:11:26.266Z,98.83
2022-12-15T21:12:33.517Z,98.86
2022-12-15T21:13:36.683Z,98.84
2022-12-15T21:14:40.735Z,98.82
2022-12-15T21:15:44.891Z,98.77
2022-12-15T21:16:49.050Z,98.74
2022-12-15T21:18:19.806Z,98.69
2022-12-15T21:19:19.181Z,98.66
2022-12-15T21:20:01.259Z,98.61
2022-12-15T21:21:08.555Z,98.57
2022-12-15T21:22:11.775Z,98.50
2022-12-15T21:23:15.771Z,98.45
2022-12-15T21:24:20.032Z,98.42
2022-12-15T21:25:24.142Z,98.39
2022-12-15T21:26:28.261Z,98.33
2022-12-15T21:27:32.304Z,98.30
2022-12-15T21:28:36.431Z,98.27
2022-12-15T21:29:40.622Z,98.22
2022-12-15T21:30:44.927Z,98.19
2022-12-15T21:31:48.941Z,98.14
2022-12-15T21:32:53.104Z,98.09
2022-12-15T21:34:00.288Z,98.05
2022-12-15T21:35:03.484Z,98.00
2022-12-15T21:36:07.551Z,97.96
2022-12-15T21:37:11.651Z,97.92
2022-12-15T21:38:15.830Z,97.88
2022-12-15T21:39:19.879Z,97.84
2022-12-15T21:40:24.022Z,97.82
2022-12-15T21:41:28.072Z,97.80
2022-12-15T21:42:32.223Z,97.79
2022-12-15T21:43:36.328Z,97.80
2022-12-15T21:44:40.412Z,97.80
2022-12-15T21:45:44.527Z,97.84
2022-12-15T21:46:48.739Z,97.88
2022-12-15T21:47:52.689Z,97.92
2022-12-15T21:48:56.887Z,97.98
2022-12-15T21:50:01.064Z,98.03
2022-12-15T21:51:06.093Z,98.06
2022-12-15T21:52:09.756Z,98.16
2022-12-15T21:53:13.986Z,98.17
2022-12-15T21:54:18.006Z,98.22
2022-12-15T21:55:22.236Z,98.14
2022-12-15T21:56:26.407Z,98.19
2022-12-15T21:57:30.478Z,98.16
2022-12-15T21:58:35.037Z,98.23
2022-12-15T21:59:38.764Z,98.22
2022-12-15T22:00:45.688Z,98.33
2022-12-15T22:01:47.102Z,98.33
2022-12-15T22:02:51.341Z,98.36
2022-12-15T22:03:55.312Z,98.39
2022-12-15T22:04:59.500Z,98.42
2022-12-15T22:06:03.642Z,98.46
2022-12-15T22:07:07.670Z,98.49
2022-12-15T22:08:11.748Z,98.51
2022-12-15T22:09:15.946Z,98.55
2022-12-15T22:10:20.071Z,98.63
2022-12-15T22:11:24.114Z,98.67
2022-12-15T22:12:28.351Z,98.73
2022-12-15T22:13:32.407Z,98.77
2022-12-15T22:14:36.473Z,98.83
2022-12-15T22:15:40.799Z,98.88
2022-12-15T22:16:44.734Z,98.93
2022-12-15T22:17:48.893Z,98.98
2022-12-15T22:18:53.035Z,99.06
2022-12-15T22:20:00.172Z,99.11
2022-12-15T22:21:03.407Z,99.20
2022-12-15T22:22:07.542Z,99.24
2022-12-15T22:23:11.554Z,99.26
2022-12-15T22:24:15.763Z,99.29
2022-12-15T22:25:19.896Z,99.33
2022-12-15T22:26:23.959Z,99.39
2022-12-15T22:27:28.142Z,99.40
2022-12-15T22:28:32.621Z,99.42
2022-12-15T22:29:36.297Z,99.46
2022-12-15T22:30:40.530Z,99.50
2022-12-15T22:31:44.494Z,99.50
2022-12-15T22:32:48.649Z,99.51
2022-12-15T22:33:53.048Z,99.49
2022-12-15T22:34:57.070Z,99.48
2022-12-15T22:36:01.062Z,99.48
2022-12-15T22:37:05.314Z,99.50
2022-12-15T22:38:09.541Z,99.46
2022-12-15T22:39:13.513Z,99.56
2022-12-15T22:40:17.703Z,99.67
2022-12-15T22:41:21.868Z,99.69
2022-12-15T22:42:25.906Z,99.81
2022-12-15T22:43:30.108Z,99.92
2022-12-15T22:44:34.186Z,99.94
2022-12-15T22:45:41.230Z,100.00
2022-12-15T22:46:42.333Z,100.00
2022-12-15T22:47:46.489Z,100.00
2022-12-15T22:48:50.645Z,100.00
2022-12-15T22:49:54.701Z,100.00
2022-12-15T22:50:58.745Z,100.00
2022-12-15T22:52:02.943Z,100.00
2022-12-15T22:53:07.062Z,100.00
2022-12-15T22:54:11.203Z,100.00
2022-12-15T22:55:15.368Z,100.00
2022-12-15T22:56:19.516Z,100.00
2022-12-15T22:57:23.696Z,100.00
2022-12-15T22:58:27.825Z,100.00
2022-12-15T22:59:32.002Z,100.00
2022-12-15T23:00:36.169Z,100.00
2022-12-15T23:01:40.326Z,100.00
2022-12-15T23:02:44.432Z,100.00
2022-12-15T23:03:48.388Z,100.00
2022-12-15T23:04:52.593Z,100.00
2022-12-15T23:05:56.758Z,100.00
2022-12-15T23:07:00.913Z,100.00
2022-12-15T23:08:05.040Z,100.00
2022-12-15T23:09:09.142Z,100.00
2022-12-15T23:10:13.293Z,100.00
2022-12-15T23:11:17.459Z,100.00
2022-12-15T23:12:21.608Z,100.00
2022-12-15T23:13:25.653Z,100.00
2022-12-15T23:14:29.867Z,100.00
2022-12-15T23:15:34.092Z,100.00
2022-12-15T23:16:38.244Z,100.00
2022-12-15T23:17:42.242Z,100.00
2022-12-15T23:18:46.386Z,100.00
2022-12-15T23:19:50.513Z,100.00
2022-12-15T23:20:54.605Z,100.00
2022-12-15T23:21:58.723Z,100.00
2022-12-15T23:23:03.785Z,100.00
2022-12-15T23:24:07.522Z,100.00
2022-12-15T23:25:11.539Z,100.00
2022-12-15T23:26:15.553Z,100.00
2022-12-15T23:27:19.799Z,100.00
2022-12-15T23:28:23.802Z,100.00
2022-12-15T23:29:27.980Z,100.00
2022-12-15T23:30:32.102Z,100.00
2022-12-15T23:31:36.292Z,100.00
2022-12-15T23:32:40.334Z,100.00
2022-12-15T23:33:44.432Z,100.00
2022-12-15T23:34:48.575Z,100.00
2022-12-15T23:35:52.727Z,100.00
2022-12-15T23:36:56.884Z,100.00
2022-12-15T23:38:01.171Z,100.00
2022-12-15T23:39:05.282Z,100.00
2022-12-15T23:40:09.294Z,100.00
2022-12-15T23:41:13.459Z,100.00
2022-12-15T23:42:17.644Z,100.00
2022-12-15T23:43:21.783Z,100.00
2022-12-15T23:44:25.887Z,100.00
2022-12-15T23:45:29.942Z,99.99
2022-12-15T23:46:34.185Z,99.97
2022-12-15T23:47:38.157Z,99.94
2022-12-15T23:48:42.319Z,99.89
2022-12-15T23:49:46.389Z,99.81
2022-12-15T23:50:50.494Z,99.74
2022-12-15T23:51:54.601Z,99.67
2022-12-15T23:52:58.769Z,99.60
2022-12-15T23:54:02.933Z,99.51
2022-12-15T23:55:07.073Z,99.44
2022-12-15T23:56:11.259Z,99.40
2022-12-15T23:57:15.344Z,99.37
2022-12-15T23:58:19.433Z,99.35
2022-12-15T23:59:23.582Z,99.33
